createdAt,value
2018-05-16T00:01:53.273Z,23.00
2018-05-16T00:04:19.470Z,24.13
2018-05-16T00:06:46.423Z,22.23
2018-05-16T00:09:13.391Z,15.80
2018-05-16T00:11:39.588Z,24.40
2018-05-16T00:14:06.635Z,18.20
2018-05-16T00:16:33.574Z,23.40
2018-05-16T00:18:59.801Z,20.73
2018-05-16T00:21:25.995Z,22.40
2018-05-16T00:23:52.210Z,21.50
2018-05-16T00:26:18.406Z,22.93
2018-05-16T00:28:45.359Z,19.90
2018-05-16T00:31:11.559Z,21.37
2018-05-16T00:33:37.786Z,22.97
2018-05-16T00:36:03.990Z,26.73
2018-05-16T00:38:30.215Z,20.97
2018-05-16T00:40:56.414Z,22.63
2018-05-16T00:43:22.635Z,25.83
2018-05-16T00:45:48.839Z,28.27
2018-05-16T00:48:15.063Z,26.73
2018-05-16T00:53:42.175Z,21.30
2018-05-16T00:56:08.371Z,24.93
2018-05-16T00:58:35.335Z,26.40
2018-05-16T01:01:01.535Z,29.47
2018-05-16T01:03:27.771Z,26.87
2018-05-16T01:05:54.798Z,25.47
2018-05-16T01:08:21.531Z,25.20
2018-05-16T01:10:48.275Z,24.90
2018-05-16T01:13:15.725Z,27.87
2018-05-16T01:15:42.984Z,25.17
2018-05-16T01:18:09.746Z,28.23
2018-05-16T01:20:36.175Z,29.63
2018-05-16T01:23:03.172Z,27.20
2018-05-16T01:25:29.362Z,28.17
2018-05-16T01:27:56.328Z,27.83
2018-05-16T01:30:22.523Z,29.80
2018-05-16T01:32:48.763Z,32.47
2018-05-16T01:35:14.956Z,32.53
2018-05-16T01:37:41.176Z,31.13
2018-05-16T01:40:07.372Z,33.57
2018-05-16T01:42:34.335Z,27.47
2018-05-16T01:45:00.531Z,37.43
2018-05-16T01:47:27.504Z,25.57
2018-05-16T01:49:53.699Z,26.57
2018-05-16T01:52:20.678Z,27.90
2018-05-16T01:54:46.867Z,28.50
2018-05-16T01:57:13.091Z,30.97
2018-05-16T01:59:39.307Z,27.67
2018-05-16T02:02:05.627Z,28.80
2018-05-16T02:04:31.820Z,26.77
2018-05-16T02:06:58.023Z,32.27
2018-05-16T02:09:25.043Z,30.90
2018-05-16T02:11:51.238Z,28.27
2018-05-16T02:14:17.455Z,30.57
2018-05-16T02:16:43.678Z,30.50
2018-05-16T02:19:09.899Z,27.90
2018-05-16T02:21:36.843Z,29.90
2018-05-16T02:24:04.072Z,32.63
2018-05-16T02:26:30.322Z,34.80
2018-05-16T02:28:57.259Z,34.13
2018-05-16T02:31:24.228Z,33.90
2018-05-16T02:33:50.422Z,35.47
2018-05-16T02:36:16.752Z,30.70
2018-05-16T02:38:42.947Z,35.03
2018-05-16T02:41:09.166Z,41.77
2018-05-16T02:43:35.368Z,33.83
2018-05-16T02:46:02.383Z,37.00
2018-05-16T02:48:28.579Z,33.23
2018-05-16T02:50:54.807Z,36.13
2018-05-16T02:53:21.071Z,33.87
2018-05-16T02:55:47.318Z,33.03
2018-05-16T02:58:14.250Z,37.03
2018-05-16T03:00:40.491Z,34.57
2018-05-16T03:03:07.428Z,32.10
2018-05-16T03:05:33.631Z,36.30
2018-05-16T03:07:59.934Z,40.87
2018-05-16T03:10:26.122Z,33.37
2018-05-16T03:12:53.140Z,36.70
2018-05-16T03:15:19.359Z,36.47
2018-05-16T03:17:45.578Z,34.50
2018-05-16T03:20:11.775Z,36.80
2018-05-16T03:22:38.058Z,41.70
2018-05-16T03:25:05.027Z,34.40
2018-05-16T03:27:31.247Z,34.20
2018-05-16T03:29:57.443Z,35.83
2018-05-16T03:32:23.675Z,35.27
2018-05-16T03:34:49.870Z,36.70
2018-05-16T03:37:16.099Z,41.83
2018-05-16T03:39:42.292Z,37.50
2018-05-16T03:42:09.250Z,39.50
2018-05-16T03:44:36.183Z,35.43
2018-05-16T03:47:02.398Z,40.37
2018-05-16T03:49:28.587Z,41.77
2018-05-16T03:51:54.872Z,39.97
2018-05-16T03:54:21.265Z,35.30
2018-05-16T03:56:47.479Z,40.17
2018-05-16T03:59:26.078Z,40.83
2018-05-16T04:02:05.466Z,44.33
2018-05-16T04:04:31.663Z,46.30
2018-05-16T04:06:57.907Z,46.07
2018-05-16T04:09:24.099Z,44.00
2018-05-16T04:11:51.043Z,45.00
2018-05-16T04:14:18.013Z,47.83
2018-05-16T04:16:44.240Z,44.27
2018-05-16T04:19:10.475Z,52.27
2018-05-16T04:21:36.679Z,43.90
2018-05-16T04:24:03.651Z,40.67
2018-05-16T04:26:29.855Z,42.93
2018-05-16T04:28:56.832Z,45.00
2018-05-16T04:31:23.022Z,46.40
2018-05-16T04:33:49.985Z,50.40
2018-05-16T04:36:16.183Z,44.00
2018-05-16T04:38:42.439Z,51.43
2018-05-16T04:41:09.370Z,53.80
2018-05-16T04:43:36.588Z,48.77
2018-05-16T04:46:02.793Z,52.43
2018-05-16T04:48:28.983Z,47.47
2018-05-16T04:50:55.947Z,43.93
2018-05-16T04:53:22.216Z,44.73
2018-05-16T04:55:48.442Z,41.60
2018-05-16T04:58:14.640Z,44.50
2018-05-16T05:00:40.863Z,40.47
2018-05-16T05:03:07.058Z,44.70
2018-05-16T05:05:33.284Z,41.87
2018-05-16T05:07:59.487Z,43.67
2018-05-16T05:10:25.719Z,45.43
2018-05-16T05:12:51.919Z,43.13
2018-05-16T05:15:18.184Z,49.47
2018-05-16T05:17:44.387Z,50.10
2018-05-16T05:20:10.615Z,45.70
2018-05-16T05:22:36.844Z,45.60
2018-05-16T05:25:03.200Z,47.23
2018-05-16T05:27:29.431Z,46.00
2018-05-16T05:29:55.635Z,57.30
2018-05-16T05:32:21.854Z,45.20
2018-05-16T05:34:48.053Z,50.50
2018-05-16T05:37:15.017Z,49.93
2018-05-16T05:39:41.221Z,46.43
2018-05-16T05:42:08.186Z,45.60
2018-05-16T05:44:34.415Z,47.43
2018-05-16T05:47:00.667Z,44.10
2018-05-16T05:49:26.933Z,42.80
2018-05-16T05:51:53.931Z,42.13
2018-05-16T05:54:20.127Z,44.03
2018-05-16T05:56:46.347Z,46.80
2018-05-16T05:59:12.547Z,52.43
2018-05-16T06:01:38.777Z,41.53
2018-05-16T06:04:04.983Z,41.70
2018-05-16T06:06:31.199Z,42.43
2018-05-16T06:11:29.786Z,40.30
2018-05-16T06:13:56.771Z,43.03
2018-05-16T06:16:23.059Z,39.40
2018-05-16T06:18:49.994Z,36.50
2018-05-16T06:21:16.930Z,44.03
2018-05-16T06:23:43.151Z,37.40
2018-05-16T06:26:09.780Z,33.70
2018-05-16T06:28:35.974Z,39.37
2018-05-16T06:31:02.163Z,35.17
2018-05-16T06:33:28.388Z,40.47
2018-05-16T06:35:54.576Z,32.70
2018-05-16T06:38:20.803Z,31.57
2018-05-16T06:40:47.018Z,31.33
2018-05-16T06:43:13.654Z,29.43
2018-05-16T06:45:39.878Z,30.53
2018-05-16T06:48:06.112Z,32.13
2018-05-16T06:50:32.315Z,25.20
2018-05-16T06:52:59.280Z,28.13
2018-05-16T06:55:25.471Z,30.20
2018-05-16T06:57:51.759Z,26.80
2018-05-16T07:00:17.954Z,24.83
2018-05-16T07:02:44.910Z,24.43
2018-05-16T07:05:11.103Z,30.77
2018-05-16T07:07:37.323Z,24.00
2018-05-16T07:10:03.526Z,24.47
2018-05-16T07:12:29.763Z,21.77
2018-05-16T07:14:56.012Z,23.60
2018-05-16T07:17:22.539Z,25.70
2018-05-16T07:19:48.815Z,22.07
2018-05-16T07:22:15.779Z,28.53
2018-05-16T07:24:41.974Z,23.90
2018-05-16T07:27:08.934Z,20.10
2018-05-16T07:29:35.871Z,22.00
2018-05-16T07:32:02.842Z,21.30
2018-05-16T07:34:29.043Z,24.37
2018-05-16T07:36:56.318Z,22.80
2018-05-16T07:39:22.518Z,20.30
2018-05-16T07:41:49.507Z,24.50
2018-05-16T07:44:15.703Z,25.30
2018-05-16T07:46:42.662Z,25.00
2018-05-16T07:49:08.859Z,23.83
2018-05-16T07:51:35.559Z,24.90
2018-05-16T07:54:01.759Z,28.87
2018-05-16T07:56:28.700Z,26.40
2018-05-16T07:58:55.032Z,21.97
2018-05-16T08:01:21.994Z,21.20
2018-05-16T08:03:48.216Z,19.67
2018-05-16T08:06:14.487Z,22.37
2018-05-16T08:08:40.710Z,28.40
2018-05-16T08:11:06.934Z,21.67
2018-05-16T08:13:33.132Z,22.50
2018-05-16T08:15:59.415Z,20.00
2018-05-16T08:18:25.603Z,23.67
2018-05-16T08:20:52.046Z,20.87
2018-05-16T08:23:18.290Z,20.10
2018-05-16T08:25:44.487Z,21.93
2018-05-16T08:28:10.705Z,19.70
2018-05-16T08:30:37.671Z,24.60
2018-05-16T08:33:03.891Z,23.20
2018-05-16T08:35:30.115Z,18.97
2018-05-16T08:37:56.335Z,16.83
2018-05-16T08:40:23.278Z,22.00
2018-05-16T08:42:50.243Z,17.90
2018-05-16T08:45:16.467Z,16.60
2018-05-16T08:47:42.670Z,12.93
2018-05-16T08:50:09.644Z,19.97
2018-05-16T08:52:35.850Z,16.30
2018-05-16T08:55:02.824Z,17.17
2018-05-16T08:57:29.043Z,21.50
2018-05-16T08:59:55.234Z,18.73
2018-05-16T09:02:21.459Z,22.97
2018-05-16T09:04:47.646Z,15.20
2018-05-16T09:07:13.866Z,16.27
2018-05-16T09:09:40.064Z,17.67
2018-05-16T09:12:07.036Z,16.53
2018-05-16T09:14:33.236Z,18.63
2018-05-16T09:16:59.484Z,20.07
2018-05-16T09:19:26.415Z,17.03
2018-05-16T09:21:53.389Z,21.57
2018-05-16T09:24:19.584Z,16.13
2018-05-16T09:26:45.811Z,17.73
2018-05-16T09:29:12.003Z,21.30
2018-05-16T09:31:38.223Z,19.63
2018-05-16T09:34:04.415Z,21.93
2018-05-16T09:36:31.372Z,21.17
2018-05-16T09:38:57.570Z,18.80
2018-05-16T09:41:23.787Z,17.47
2018-05-16T09:43:49.982Z,19.60
2018-05-16T09:46:16.203Z,20.97
2018-05-16T09:48:42.399Z,18.10
2018-05-16T09:51:09.363Z,17.60
2018-05-16T09:53:35.574Z,19.20
2018-05-16T09:56:02.515Z,27.23
2018-05-16T09:58:29.471Z,21.13
2018-05-16T10:00:56.410Z,22.70
2018-05-16T10:03:23.375Z,20.67
2018-05-16T10:05:49.578Z,19.00
2018-05-16T10:08:15.796Z,23.77
2018-05-16T10:10:41.999Z,24.13
2018-05-16T10:13:08.213Z,22.03
2018-05-16T10:15:34.427Z,21.33
2018-05-16T10:18:00.975Z,20.23
2018-05-16T10:20:27.168Z,20.53
2018-05-16T10:22:54.127Z,24.37
2018-05-16T10:25:20.318Z,27.17
2018-05-16T10:27:46.570Z,20.03
2018-05-16T10:30:12.794Z,18.37
2018-05-16T10:32:39.755Z,20.87
2018-05-16T10:35:05.951Z,18.23
2018-05-16T10:37:32.171Z,19.73
2018-05-16T10:39:58.371Z,22.07
2018-05-16T10:42:24.595Z,21.43
2018-05-16T10:44:50.782Z,24.00
2018-05-16T10:47:17.715Z,25.47
2018-05-16T10:49:43.947Z,24.13
2018-05-16T10:52:10.233Z,22.00
2018-05-16T10:54:36.392Z,22.80
2018-05-16T10:57:02.587Z,29.13
2018-05-16T10:59:28.811Z,30.60
2018-05-16T11:01:54.998Z,25.10
2018-05-16T11:04:21.955Z,24.30
2018-05-16T11:06:48.911Z,29.13
2018-05-16T11:09:15.115Z,21.70
2018-05-16T11:11:41.340Z,23.57
2018-05-16T11:14:07.559Z,23.97
2018-05-16T11:16:33.784Z,20.50
2018-05-16T11:18:59.978Z,19.67
2018-05-16T11:21:26.240Z,18.90
2018-05-16T11:23:52.436Z,17.50
2018-05-16T11:26:18.687Z,15.93
2018-05-16T11:28:44.887Z,20.63
2018-05-16T11:31:11.123Z,17.17
2018-05-16T11:33:37.338Z,21.40
2018-05-16T11:36:03.536Z,17.00
2018-05-16T11:38:30.509Z,15.80
2018-05-16T11:40:56.712Z,17.37
2018-05-16T11:43:23.683Z,18.23
2018-05-16T11:45:49.871Z,16.23
2018-05-16T11:48:16.098Z,19.27
2018-05-16T11:50:42.299Z,20.30
2018-05-16T11:53:08.516Z,16.80
2018-05-16T11:55:34.715Z,18.17
2018-05-16T11:58:01.748Z,17.33
2018-05-16T12:00:28.690Z,20.90
2018-05-16T12:02:54.979Z,19.03
2018-05-16T12:05:21.875Z,18.90
2018-05-16T12:07:48.907Z,16.30
2018-05-16T12:10:15.103Z,21.10
2018-05-16T12:12:41.328Z,21.17
2018-05-16T12:15:07.555Z,18.70
2018-05-16T12:17:33.778Z,19.43
2018-05-16T12:19:59.979Z,21.37
2018-05-16T12:22:26.206Z,24.23
2018-05-16T12:24:52.406Z,22.50
2018-05-16T12:27:18.619Z,21.07
2018-05-16T12:29:44.812Z,22.07
2018-05-16T12:32:11.036Z,20.80
2018-05-16T12:34:37.240Z,22.00
2018-05-16T12:37:04.203Z,21.00
2018-05-16T12:39:30.394Z,20.93
2018-05-16T12:41:56.655Z,21.17
2018-05-16T12:44:22.983Z,26.97
2018-05-16T12:46:49.952Z,21.80
2018-05-16T12:49:16.184Z,21.73
2018-05-16T12:51:42.383Z,24.33
2018-05-16T12:54:09.350Z,21.27
2018-05-16T12:56:35.552Z,19.70
2018-05-16T12:59:02.522Z,20.10
2018-05-16T13:01:28.744Z,18.93
2018-05-16T13:03:55.015Z,19.57
2018-05-16T13:06:21.532Z,23.17
2018-05-16T13:08:47.754Z,22.00
2018-05-16T13:11:14.015Z,22.10
2018-05-16T13:13:40.240Z,21.43
2018-05-16T13:16:06.522Z,20.70
2018-05-16T13:18:33.483Z,21.70
2018-05-16T13:20:59.683Z,23.30
2018-05-16T13:23:26.651Z,21.30
2018-05-16T13:25:52.842Z,21.93
2018-05-16T13:28:19.063Z,23.00
2018-05-16T13:30:46.055Z,23.90
2018-05-16T13:33:12.329Z,22.70
2018-05-16T13:35:38.954Z,20.67
2018-05-16T13:38:05.074Z,21.67
2018-05-16T13:40:31.275Z,24.07
2018-05-16T13:42:57.498Z,20.77
2018-05-16T13:45:23.703Z,23.60
2018-05-16T13:47:49.952Z,23.50
2018-05-16T13:50:16.882Z,26.40
2018-05-16T13:52:43.823Z,24.67
2018-05-16T13:55:10.055Z,23.50
2018-05-16T13:57:36.242Z,24.00
2018-05-16T14:00:02.594Z,20.60
2018-05-16T14:02:28.735Z,22.47
2018-05-16T14:04:54.964Z,25.30
2018-05-16T14:07:21.191Z,25.23
2018-05-16T14:09:47.411Z,19.40
2018-05-16T14:12:13.662Z,23.63
2018-05-16T14:14:40.655Z,19.37
2018-05-16T14:17:06.851Z,21.10
2018-05-16T14:19:33.099Z,17.70
2018-05-16T14:21:59.319Z,22.13
2018-05-16T14:24:25.506Z,16.40
2018-05-16T14:26:51.739Z,16.63
2018-05-16T14:29:17.943Z,15.67
2018-05-16T14:31:44.168Z,17.83
2018-05-16T14:34:10.359Z,19.37
2018-05-16T14:36:36.583Z,17.37
2018-05-16T14:39:05.315Z,17.03
2018-05-16T14:41:31.536Z,17.53
2018-05-16T14:43:57.731Z,14.40
2018-05-16T14:46:24.444Z,19.33
2018-05-16T14:48:50.645Z,15.33
2018-05-16T14:51:16.862Z,17.30
2018-05-16T14:53:43.060Z,17.60
2018-05-16T14:56:09.295Z,20.23
2018-05-16T14:58:35.495Z,18.00
2018-05-16T15:01:02.459Z,15.70
2018-05-16T15:03:29.396Z,18.70
2018-05-16T15:05:56.355Z,16.77
2018-05-16T15:08:22.547Z,16.00
2018-05-16T15:10:48.764Z,19.13
2018-05-16T15:13:14.967Z,18.40
2018-05-16T15:15:41.236Z,20.93
2018-05-16T15:18:07.431Z,19.23
2018-05-16T15:20:36.579Z,18.10
2018-05-16T15:23:03.535Z,18.93
2018-05-16T15:25:30.480Z,18.40
2018-05-16T15:27:57.443Z,22.47
2018-05-16T15:30:23.651Z,16.97
2018-05-16T15:32:50.611Z,18.70
2018-05-16T15:35:16.809Z,18.53
2018-05-16T15:37:43.036Z,24.10
2018-05-16T15:40:09.227Z,23.67
2018-05-16T15:42:35.447Z,18.90
2018-05-16T15:45:01.647Z,21.77
2018-05-16T15:47:27.870Z,23.10
2018-05-16T15:49:54.803Z,22.10
2018-05-16T15:52:21.771Z,22.77
2018-05-16T15:54:47.969Z,32.50
2018-05-16T15:57:14.190Z,25.87
2018-05-16T15:59:40.484Z,25.60
2018-05-16T16:02:06.635Z,27.20
2018-05-16T16:04:32.823Z,31.73
2018-05-16T16:06:59.044Z,29.63
2018-05-16T16:09:25.239Z,32.23
2018-05-16T16:11:51.482Z,28.57
2018-05-16T16:14:18.483Z,26.00
2018-05-16T16:16:44.710Z,24.80
2018-05-16T16:19:10.971Z,27.70
2018-05-16T16:21:37.211Z,26.03
2018-05-16T16:24:03.434Z,26.80
2018-05-16T16:26:29.650Z,28.20
2018-05-16T16:28:55.854Z,26.37
2018-05-16T16:31:22.114Z,27.33
2018-05-16T16:33:48.307Z,25.23
2018-05-16T16:36:14.723Z,26.67
2018-05-16T16:38:40.915Z,26.27
2018-05-16T16:41:07.139Z,29.50
2018-05-16T16:43:33.339Z,22.03
2018-05-16T16:45:59.572Z,23.50
2018-05-16T16:48:25.799Z,23.77
2018-05-16T16:50:52.015Z,23.10
2018-05-16T16:53:18.257Z,22.30
2018-05-16T16:55:44.455Z,22.20
2018-05-16T16:58:10.687Z,23.87
2018-05-16T17:00:36.883Z,17.77
2018-05-16T17:03:03.851Z,24.03
2018-05-16T17:05:30.056Z,25.60
2018-05-16T17:07:57.019Z,20.87
2018-05-16T17:10:23.967Z,21.97
2018-05-16T17:12:50.192Z,17.57
2018-05-16T17:15:17.155Z,20.87
2018-05-16T17:17:43.379Z,21.70
2018-05-16T17:20:09.650Z,19.87
2018-05-16T17:22:35.851Z,17.73
2018-05-16T17:25:02.046Z,18.20
2018-05-16T17:27:29.012Z,17.80
2018-05-16T17:29:55.210Z,18.37
2018-05-16T17:32:21.422Z,17.50
2018-05-16T17:34:47.630Z,17.60
2018-05-16T17:37:13.877Z,18.00
2018-05-16T17:39:40.819Z,17.20
2018-05-16T17:42:07.063Z,19.47
2018-05-16T17:44:33.263Z,13.90
2018-05-16T17:46:59.554Z,14.47
2018-05-16T17:49:25.746Z,16.57
2018-05-16T17:51:52.701Z,13.27
2018-05-16T17:54:19.201Z,14.00
2018-05-16T17:56:45.390Z,14.73
2018-05-16T17:59:11.695Z,10.70
2018-05-16T18:01:38.634Z,10.43
2018-05-16T18:04:04.850Z,10.53
2018-05-16T18:06:31.154Z,10.70
2018-05-16T18:08:57.307Z,9.57
2018-05-16T18:11:23.514Z,13.43
2018-05-16T18:14:02.196Z,10.73
2018-05-16T18:16:41.631Z,12.10
2018-05-16T18:19:08.599Z,14.43
2018-05-16T18:21:35.046Z,11.77
2018-05-16T18:24:01.299Z,9.47
2018-05-16T18:26:27.523Z,10.17
2018-05-16T18:28:53.823Z,15.53
2018-05-16T18:31:20.010Z,10.00
2018-05-16T18:33:46.376Z,10.67
2018-05-16T18:36:12.570Z,8.30
2018-05-16T18:38:40.275Z,7.50
2018-05-16T18:41:06.480Z,9.10
2018-05-16T18:43:33.511Z,9.00
2018-05-16T18:45:59.730Z,9.60
2018-05-16T18:48:26.011Z,8.70
2018-05-16T18:50:52.215Z,9.20
2018-05-16T18:53:19.180Z,13.63
2018-05-16T18:55:45.375Z,9.27
2018-05-16T18:58:12.355Z,9.33
2018-05-16T19:00:38.603Z,11.90
2018-05-16T19:03:04.955Z,9.37
2018-05-16T19:05:31.150Z,14.97
2018-05-16T19:07:57.344Z,11.40
2018-05-16T19:10:24.791Z,10.40
2018-05-16T19:12:50.985Z,11.27
2018-05-16T19:15:17.228Z,12.00
2018-05-16T19:17:43.415Z,10.03
2018-05-16T19:20:09.679Z,10.53
2018-05-16T19:22:35.875Z,9.40
2018-05-16T19:25:02.100Z,19.63
2018-05-16T19:27:28.303Z,10.87
2018-05-16T19:29:55.262Z,12.97
2018-05-16T19:32:22.199Z,18.90
2018-05-16T19:34:49.144Z,10.27
2018-05-16T19:37:16.108Z,13.37
2018-05-16T19:39:42.299Z,13.77
2018-05-16T19:42:09.262Z,12.20
2018-05-16T19:44:36.199Z,12.80
2018-05-16T19:47:02.423Z,15.57
2018-05-16T19:49:28.618Z,15.43
2018-05-16T19:51:54.836Z,11.63
2018-05-16T19:54:21.039Z,11.87
2018-05-16T19:56:48.005Z,20.70
2018-05-16T19:59:14.206Z,20.10
2018-05-16T20:01:41.162Z,15.20
2018-05-16T20:04:08.095Z,13.50
2018-05-16T20:06:35.050Z,18.43
2018-05-16T20:09:02.078Z,12.47
2018-05-16T20:11:29.044Z,13.70
2018-05-16T20:13:55.979Z,18.33
2018-05-16T20:16:23.063Z,16.00
2018-05-16T20:18:49.250Z,18.13
2018-05-16T20:21:15.527Z,16.20
2018-05-16T20:23:41.718Z,23.53
2018-05-16T20:26:08.715Z,18.93
2018-05-16T20:28:34.931Z,16.57
2018-05-16T20:31:01.124Z,17.70
2018-05-16T20:33:28.142Z,21.93
2018-05-16T20:35:54.407Z,30.17
2018-05-16T20:38:21.363Z,21.70
2018-05-16T20:40:47.558Z,20.23
2018-05-16T20:43:14.663Z,19.70
2018-05-16T20:45:40.899Z,23.33
2018-05-16T20:48:14.063Z,20.63
2018-05-16T20:50:40.299Z,18.80
2018-05-16T20:53:07.463Z,20.73
2018-05-16T20:55:33.650Z,18.90
2018-05-16T20:58:00.610Z,21.93
2018-05-16T21:00:27.546Z,21.77
2018-05-16T21:02:54.512Z,22.60
2018-05-16T21:05:20.964Z,22.90
2018-05-16T21:07:47.157Z,21.47
2018-05-16T21:10:14.121Z,18.30
2018-05-16T21:12:40.338Z,21.17
2018-05-16T21:15:07.279Z,19.50
2018-05-16T21:17:34.234Z,20.30
2018-05-16T21:20:00.717Z,20.87
2018-05-16T21:22:26.906Z,22.10
2018-05-16T21:24:53.139Z,25.70
2018-05-16T21:27:19.330Z,25.77
2018-05-16T21:29:45.548Z,25.00
2018-05-16T21:32:13.232Z,25.73
2018-05-16T21:34:40.198Z,28.23
2018-05-16T21:37:06.540Z,32.10
2018-05-16T21:39:32.755Z,25.43
2018-05-16T21:41:58.950Z,26.20
2018-05-16T21:44:25.226Z,29.57
2018-05-16T21:46:51.452Z,29.13
2018-05-16T21:49:17.678Z,29.33
2018-05-16T21:51:43.871Z,26.07
2018-05-16T21:54:10.835Z,34.70
2018-05-16T21:56:38.150Z,35.53
2018-05-16T21:59:04.379Z,31.63
2018-05-16T22:01:31.385Z,33.77
2018-05-16T22:03:57.594Z,35.90
2018-05-16T22:06:24.518Z,38.67
2018-05-16T22:08:50.736Z,38.60
2018-05-16T22:11:16.969Z,36.77
2018-05-16T22:13:43.186Z,42.00
2018-05-16T22:16:09.374Z,48.23
2018-05-16T22:18:35.571Z,40.97
2018-05-16T22:21:02.537Z,47.53
2018-05-16T22:23:28.734Z,51.40
2018-05-16T22:25:54.958Z,52.97
2018-05-16T22:28:21.896Z,58.30
2018-05-16T22:30:54.367Z,45.30
2018-05-16T22:33:26.567Z,56.93
2018-05-16T22:35:59.583Z,51.93
2018-05-16T22:38:31.902Z,58.17
2018-05-16T22:41:04.158Z,58.47
2018-05-16T22:43:33.447Z,59.33
2018-05-16T22:45:59.691Z,59.83
2018-05-16T22:48:26.135Z,65.27
2018-05-16T22:50:52.341Z,58.80
2018-05-16T22:53:18.523Z,63.80
2018-05-16T22:55:45.478Z,64.93
2018-05-16T22:58:12.439Z,68.70
2018-05-16T23:00:38.622Z,72.20
2018-05-16T23:03:04.819Z,68.97
2018-05-16T23:05:31.038Z,71.47
2018-05-16T23:07:57.234Z,67.10
2018-05-16T23:10:24.233Z,61.10
2018-05-16T23:12:50.431Z,72.93
2018-05-16T23:15:16.646Z,78.43
2018-05-16T23:17:42.842Z,68.80
2018-05-16T23:20:09.058Z,68.57
2018-05-16T23:22:36.019Z,85.37
2018-05-16T23:25:03.011Z,82.90
2018-05-16T23:27:29.203Z,74.93
2018-05-16T23:29:56.143Z,78.30
2018-05-16T23:32:22.441Z,78.77
2018-05-16T23:34:48.603Z,74.07
2018-05-16T23:37:14.862Z,69.10
2018-05-16T23:39:41.055Z,66.90
2018-05-16T23:42:07.278Z,71.70
2018-05-16T23:44:33.466Z,72.97
2018-05-16T23:46:59.687Z,69.00
2018-05-16T23:49:25.889Z,59.60
2018-05-16T23:51:52.834Z,63.37
2018-05-16T23:54:19.791Z,83.50
2018-05-16T23:56:46.731Z,68.53
2018-05-16T23:59:13.691Z,62.93
